createdAt,value
2023-02-04T00:00:21.715Z,2.80
2023-02-04T00:02:51.065Z,2.76
2023-02-04T00:05:19.226Z,2.68
2023-02-04T00:07:46.832Z,2.72
2023-02-04T00:10:14.788Z,2.61
2023-02-04T00:12:42.278Z,2.78
2023-02-04T00:15:10.751Z,2.67
2023-02-04T00:17:39.311Z,3.03
2023-02-04T00:20:08.924Z,2.68
2023-02-04T00:22:36.394Z,2.50
2023-02-04T00:25:03.920Z,2.57
2023-02-04T00:27:31.516Z,2.42
2023-02-04T00:29:59.195Z,2.38
2023-02-04T00:32:26.865Z,2.56
2023-02-04T00:34:54.574Z,2.40
2023-02-04T00:37:23.554Z,2.59
2023-02-04T00:39:51.040Z,2.55
2023-02-04T00:42:18.625Z,2.44
2023-02-04T00:44:46.120Z,2.29
2023-02-04T00:47:14.005Z,2.40
2023-02-04T00:49:41.513Z,2.22
2023-02-04T00:52:09.028Z,2.13
2023-02-04T00:54:38.097Z,2.11
2023-02-04T00:57:05.656Z,2.28
2023-02-04T00:59:33.350Z,2.04
2023-02-04T01:02:01.206Z,2.45
2023-02-04T01:04:29.584Z,2.29
2023-02-04T01:06:57.336Z,2.25
2023-02-04T01:09:25.009Z,2.18
2023-02-04T01:11:53.828Z,2.09
2023-02-04T01:14:21.322Z,2.17
2023-02-04T01:16:48.942Z,2.12
2023-02-04T01:19:16.442Z,2.37
2023-02-04T01:21:43.949Z,2.26
2023-02-04T01:24:11.425Z,1.99
2023-02-04T01:26:39.032Z,1.97
2023-02-04T01:29:07.878Z,1.92
2023-02-04T01:31:35.453Z,1.85
2023-02-04T01:34:03.420Z,1.87
2023-02-04T01:36:31.108Z,1.90
2023-02-04T01:39:00.887Z,1.74
2023-02-04T01:41:29.063Z,1.83
2023-02-04T01:43:56.523Z,1.75
2023-02-04T01:46:25.405Z,1.82
2023-02-04T01:48:53.812Z,1.86
2023-02-04T01:51:27.916Z,2.08
2023-02-04T01:53:55.791Z,1.83
2023-02-04T01:56:26.460Z,2.05
2023-02-04T01:58:55.160Z,2.14
2023-02-04T02:01:38.867Z,1.75
2023-02-04T02:04:06.562Z,2.14
2023-02-04T02:06:34.787Z,2.05
2023-02-04T02:09:02.555Z,2.09
2023-02-04T02:11:30.119Z,2.17
2023-02-04T02:13:57.625Z,1.93
2023-02-04T02:16:25.278Z,1.85
2023-02-04T02:18:54.515Z,1.82
2023-02-04T02:21:32.855Z,1.61
2023-02-04T02:24:01.898Z,1.70
2023-02-04T02:26:29.553Z,1.77
2023-02-04T02:28:57.321Z,1.92
2023-02-04T02:31:24.965Z,1.74
2023-02-04T02:33:52.509Z,1.74
2023-02-04T02:36:20.381Z,1.47
2023-02-04T02:38:47.929Z,1.43
2023-02-04T02:41:16.936Z,1.56
2023-02-04T02:43:44.398Z,1.61
2023-02-04T02:46:11.929Z,1.50
2023-02-04T02:48:39.545Z,1.57
2023-02-04T02:51:07.351Z,1.49
2023-02-04T02:53:35.847Z,1.83
2023-02-04T02:56:04.710Z,1.92
2023-02-04T02:58:36.231Z,1.86
2023-02-04T03:01:06.733Z,1.65
2023-02-04T03:03:35.447Z,1.84
2023-02-04T03:06:06.157Z,1.48
2023-02-04T03:08:33.869Z,1.46
2023-02-04T03:11:01.333Z,1.67
2023-02-04T03:13:29.137Z,1.26
2023-02-04T03:15:58.324Z,1.19
2023-02-04T03:18:25.932Z,1.37
2023-02-04T03:20:53.571Z,1.20
2023-02-04T03:23:21.545Z,1.49
2023-02-04T03:25:49.240Z,1.11
2023-02-04T03:28:16.807Z,1.28
2023-02-04T03:30:44.445Z,1.58
2023-02-04T03:33:14.382Z,1.21
2023-02-04T03:35:42.609Z,1.10
2023-02-04T03:38:10.375Z,1.26
2023-02-04T03:40:38.024Z,0.97
2023-02-04T03:43:05.501Z,0.94
2023-02-04T03:45:44.671Z,0.94
2023-02-04T03:48:14.451Z,0.81
2023-02-04T03:50:42.048Z,0.87
2023-02-04T03:53:09.979Z,1.03
2023-02-04T03:55:37.533Z,1.03
2023-02-04T03:58:05.643Z,1.16
2023-02-04T04:00:33.405Z,1.41
2023-02-04T04:03:01.547Z,1.30
2023-02-04T04:05:30.583Z,1.24
2023-02-04T04:07:58.057Z,0.98
2023-02-04T04:10:25.956Z,1.01
2023-02-04T04:12:53.471Z,0.99
2023-02-04T04:15:20.920Z,1.33
2023-02-04T04:17:48.595Z,1.26
2023-02-04T04:20:17.572Z,0.81
2023-02-04T04:22:46.837Z,0.61
2023-02-04T04:25:14.345Z,0.66
2023-02-04T04:27:41.849Z,0.65
2023-02-04T04:30:10.501Z,0.75
2023-02-04T04:32:38.019Z,0.84
2023-02-04T04:35:05.819Z,0.81
2023-02-04T04:37:35.146Z,1.00
2023-02-04T04:40:03.980Z,1.26
2023-02-04T04:42:31.465Z,0.97
2023-02-04T04:44:58.932Z,1.22
2023-02-04T04:47:26.430Z,1.10
2023-02-04T04:49:53.967Z,0.99
2023-02-04T04:52:21.481Z,0.72
2023-02-04T04:54:48.935Z,0.81
2023-02-04T04:57:17.964Z,0.66
2023-02-04T04:59:45.432Z,0.60
2023-02-04T05:02:12.931Z,0.81
2023-02-04T05:04:40.554Z,1.02
2023-02-04T05:07:08.173Z,0.90
2023-02-04T05:09:35.646Z,0.71
2023-02-04T05:12:03.902Z,0.83
2023-02-04T05:14:33.012Z,0.44
2023-02-04T05:17:00.534Z,0.23
2023-02-04T05:19:28.017Z,0.27
2023-02-04T05:21:57.318Z,0.08
2023-02-04T05:24:24.857Z,-0.19
2023-02-04T05:26:52.618Z,0.01
2023-02-04T05:29:20.107Z,-0.29
2023-02-04T05:31:48.941Z,-0.28
2023-02-04T05:34:16.793Z,-0.53
2023-02-04T05:36:44.255Z,-0.58
2023-02-04T05:39:12.031Z,-0.79
2023-02-04T05:41:39.601Z,-0.80
2023-02-04T05:44:07.137Z,-0.95
2023-02-04T05:46:34.778Z,-1.02
2023-02-04T05:49:03.608Z,-1.06
2023-02-04T05:51:31.062Z,-1.17
2023-02-04T05:53:58.789Z,-1.26
2023-02-04T05:56:26.626Z,-1.18
2023-02-04T05:58:54.156Z,-1.20
2023-02-04T06:01:21.609Z,-1.07
2023-02-04T06:03:49.229Z,-1.00
2023-02-04T06:06:18.379Z,-1.14
2023-02-04T06:08:46.940Z,-0.71
2023-02-04T06:11:14.634Z,-0.51
2023-02-04T06:13:42.265Z,-0.89
2023-02-04T06:16:09.770Z,-1.32
2023-02-04T06:18:37.259Z,-1.53
2023-02-04T06:21:04.790Z,-1.60
2023-02-04T06:23:34.678Z,-1.59
2023-02-04T06:26:02.583Z,-1.59
2023-02-04T06:28:30.297Z,-1.63
2023-02-04T06:30:57.839Z,-1.64
2023-02-04T06:33:25.401Z,-1.65
2023-02-04T06:35:52.948Z,-0.93
2023-02-04T06:38:20.586Z,-1.02
2023-02-04T06:40:53.415Z,-1.52
2023-02-04T06:43:21.656Z,-1.71
2023-02-04T06:45:50.994Z,-1.39
2023-02-04T06:48:18.535Z,-1.37
2023-02-04T06:50:46.075Z,-1.14
2023-02-04T06:53:13.615Z,-1.34
2023-02-04T06:55:41.155Z,-1.41
2023-02-04T06:58:10.555Z,-1.53
2023-02-04T07:00:38.353Z,-1.67
2023-02-04T07:03:07.314Z,-1.83
2023-02-04T07:05:35.176Z,-1.77
2023-02-04T07:08:03.078Z,-1.86
2023-02-04T07:10:31.108Z,-1.84
2023-02-04T07:12:58.811Z,-1.86
2023-02-04T07:15:27.846Z,-1.78
2023-02-04T07:17:55.345Z,-1.71
2023-02-04T07:20:22.820Z,-1.58
2023-02-04T07:22:50.449Z,-1.50
2023-02-04T07:25:18.095Z,-1.47
2023-02-04T07:27:45.592Z,-1.42
2023-02-04T07:30:14.281Z,-0.92
2023-02-04T07:32:43.076Z,-0.64
2023-02-04T07:35:11.786Z,-0.60
2023-02-04T07:37:39.551Z,-0.54
2023-02-04T07:40:08.283Z,-0.54
2023-02-04T07:42:35.813Z,-0.63
2023-02-04T07:45:03.508Z,-0.53
2023-02-04T07:47:31.140Z,-0.39
2023-02-04T07:49:59.950Z,-0.17
2023-02-04T07:52:27.618Z,-0.23
2023-02-04T07:54:55.104Z,-0.69
2023-02-04T07:57:22.712Z,-0.80
2023-02-04T07:59:50.423Z,-0.54
2023-02-04T08:02:18.086Z,-0.22
2023-02-04T08:04:45.718Z,-0.02
2023-02-04T08:07:14.732Z,0.14
2023-02-04T08:09:42.272Z,0.21
2023-02-04T08:12:09.926Z,0.27
2023-02-04T08:14:37.613Z,0.29
2023-02-04T08:17:05.462Z,0.53
2023-02-04T08:19:32.961Z,0.21
2023-02-04T08:22:00.617Z,0.12
2023-02-04T08:24:29.584Z,0.17
2023-02-04T08:26:58.239Z,0.39
2023-02-04T08:29:26.431Z,0.18
2023-02-04T08:31:53.932Z,0.52
2023-02-04T08:34:21.510Z,0.29
2023-02-04T08:36:48.981Z,0.52
2023-02-04T08:39:16.664Z,0.46
2023-02-04T08:41:45.704Z,0.88
2023-02-04T08:44:13.214Z,0.83
2023-02-04T08:46:40.919Z,1.10
2023-02-04T08:49:08.450Z,0.61
2023-02-04T08:51:35.909Z,0.71
2023-02-04T08:54:03.419Z,1.17
2023-02-04T08:56:31.208Z,0.99
2023-02-04T08:59:00.176Z,0.88
2023-02-04T09:01:27.720Z,1.34
2023-02-04T09:03:55.402Z,1.79
2023-02-04T09:06:22.925Z,1.39
2023-02-04T09:08:50.393Z,0.92
2023-02-04T09:11:17.835Z,1.15
2023-02-04T09:13:45.332Z,1.05
2023-02-04T09:16:14.226Z,1.23
2023-02-04T09:18:41.824Z,1.29
2023-02-04T09:21:09.333Z,1.53
2023-02-04T09:23:36.827Z,1.80
2023-02-04T09:26:06.300Z,1.40
2023-02-04T09:28:33.785Z,2.45
2023-02-04T09:31:02.580Z,1.39
2023-02-04T09:33:33.552Z,2.28
2023-02-04T09:36:01.111Z,1.64
2023-02-04T09:38:28.575Z,1.65
2023-02-04T09:40:57.451Z,1.70
2023-02-04T09:43:27.057Z,1.72
2023-02-04T09:45:55.025Z,1.82
2023-02-04T09:48:23.471Z,1.58
2023-02-04T09:50:52.762Z,2.81
2023-02-04T09:53:21.895Z,1.89
2023-02-04T09:55:51.796Z,2.52
2023-02-04T09:58:20.721Z,3.40
2023-02-04T10:00:51.599Z,1.63
2023-02-04T10:03:21.698Z,2.09
2023-02-04T10:05:49.941Z,2.27
2023-02-04T10:08:20.913Z,2.01
2023-02-04T10:10:49.792Z,2.04
2023-02-04T10:13:18.830Z,1.68
2023-02-04T10:15:47.160Z,1.74
2023-02-04T10:18:20.545Z,2.25
2023-02-04T10:20:48.001Z,2.88
2023-02-04T10:23:15.550Z,3.62
2023-02-04T10:25:44.347Z,4.11
2023-02-04T10:28:11.908Z,3.68
2023-02-04T10:30:41.295Z,2.18
2023-02-04T10:33:16.675Z,2.50
2023-02-04T10:35:48.206Z,2.53
2023-02-04T10:38:15.747Z,2.15
2023-02-04T10:40:46.097Z,1.98
2023-02-04T10:43:16.625Z,2.51
2023-02-04T10:45:47.695Z,2.31
2023-02-04T10:48:17.637Z,2.34
2023-02-04T10:50:46.152Z,2.74
2023-02-04T10:53:39.964Z,2.59
2023-02-04T10:56:17.103Z,2.14
2023-02-04T10:58:44.652Z,2.90
2023-02-04T11:01:12.853Z,3.05
2023-02-04T11:03:41.349Z,2.41
2023-02-04T11:06:12.143Z,2.78
2023-02-04T11:08:39.970Z,3.55
2023-02-04T11:11:10.719Z,3.05
2023-02-04T11:13:42.844Z,2.67
2023-02-04T11:16:13.436Z,2.13
2023-02-04T11:18:47.421Z,3.78
2023-02-04T11:21:22.626Z,2.85
2023-02-04T11:23:50.181Z,3.35
2023-02-04T11:26:22.663Z,3.56
2023-02-04T11:28:52.922Z,4.53
2023-02-04T11:31:30.637Z,2.99
2023-02-04T11:34:10.549Z,3.10
2023-02-04T11:36:51.808Z,4.11
2023-02-04T11:39:19.414Z,2.80
2023-02-04T11:41:48.511Z,4.75
2023-02-04T11:44:16.802Z,5.41
2023-02-04T11:46:44.570Z,5.67
2023-02-04T11:49:19.318Z,6.12
2023-02-04T11:51:46.829Z,6.08
2023-02-04T11:54:16.084Z,3.48
2023-02-04T11:56:43.977Z,4.07
2023-02-04T11:59:15.064Z,5.16
2023-02-04T12:01:42.627Z,4.11
2023-02-04T12:04:23.369Z,5.15
2023-02-04T12:06:59.170Z,4.03
2023-02-04T12:09:27.972Z,3.59
2023-02-04T12:11:57.524Z,4.71
2023-02-04T12:14:32.757Z,5.44
2023-02-04T12:17:00.364Z,4.05
2023-02-04T12:19:28.756Z,4.21
2023-02-04T12:21:56.520Z,4.66
2023-02-04T12:24:24.005Z,3.76
2023-02-04T12:26:51.758Z,3.38
2023-02-04T12:29:19.258Z,4.63
2023-02-04T12:31:48.205Z,3.10
2023-02-04T12:34:17.250Z,4.20
2023-02-04T12:36:44.795Z,4.45
2023-02-04T12:39:12.417Z,4.12
2023-02-04T12:41:39.911Z,4.20
2023-02-04T12:44:07.659Z,3.79
2023-02-04T12:46:35.217Z,3.27
2023-02-04T12:49:04.101Z,5.01
2023-02-04T12:51:32.809Z,4.23
2023-02-04T12:54:00.256Z,5.32
2023-02-04T12:56:27.729Z,6.17
2023-02-04T12:58:55.208Z,6.30
2023-02-04T13:01:22.737Z,6.39
2023-02-04T13:03:50.225Z,6.52
2023-02-04T13:06:19.070Z,6.76
2023-02-04T13:08:46.545Z,4.84
2023-02-04T13:11:14.013Z,5.46
2023-02-04T13:13:41.495Z,6.44
2023-02-04T13:16:09.087Z,5.11
2023-02-04T13:18:36.588Z,6.62
2023-02-04T13:21:04.282Z,6.61
2023-02-04T13:23:33.160Z,5.24
2023-02-04T13:26:00.629Z,4.56
2023-02-04T13:28:28.105Z,5.77
2023-02-04T13:30:55.597Z,6.36
2023-02-04T13:33:23.166Z,7.21
2023-02-04T13:35:50.672Z,7.16
2023-02-04T13:38:18.243Z,4.63
2023-02-04T13:40:47.034Z,5.97
2023-02-04T13:43:14.544Z,5.85
2023-02-04T13:45:47.448Z,6.63
2023-02-04T13:48:15.048Z,6.05
2023-02-04T13:50:42.514Z,5.90
2023-02-04T13:53:10.061Z,6.52
2023-02-04T13:55:37.549Z,5.80
2023-02-04T13:58:06.319Z,4.60
2023-02-04T14:00:34.087Z,6.92
2023-02-04T14:03:01.700Z,7.37
2023-02-04T14:05:29.226Z,7.59
2023-02-04T14:07:56.731Z,4.28
2023-02-04T14:10:24.976Z,4.95
2023-02-04T14:12:52.460Z,5.30
2023-02-04T14:15:21.518Z,4.00
2023-02-04T14:17:49.021Z,4.48
2023-02-04T14:20:16.803Z,4.70
2023-02-04T14:22:44.254Z,4.37
2023-02-04T14:25:11.722Z,3.87
2023-02-04T14:27:42.019Z,4.08
2023-02-04T14:30:17.039Z,3.77
2023-02-04T14:32:45.826Z,5.20
2023-02-04T14:35:13.445Z,3.77
2023-02-04T14:37:40.928Z,3.65
2023-02-04T14:40:10.198Z,4.66
2023-02-04T14:42:38.633Z,5.25
2023-02-04T14:45:07.516Z,5.57
2023-02-04T14:47:35.145Z,3.53
2023-02-04T14:50:05.063Z,3.60
2023-02-04T14:52:32.546Z,4.65
2023-02-04T14:55:00.236Z,3.86
2023-02-04T14:57:27.694Z,4.05
2023-02-04T14:59:55.158Z,3.59
2023-02-04T15:02:22.916Z,3.65
2023-02-04T15:04:50.500Z,4.34
2023-02-04T15:07:19.298Z,4.26
2023-02-04T15:09:46.821Z,5.05
2023-02-04T15:12:14.317Z,5.31
2023-02-04T15:14:41.774Z,5.09
2023-02-04T15:17:09.246Z,5.59
2023-02-04T15:19:37.202Z,5.24
2023-02-04T15:22:04.662Z,4.86
2023-02-04T15:24:33.438Z,5.29
2023-02-04T15:27:00.896Z,4.45
2023-02-04T15:29:28.460Z,3.57
2023-02-04T15:31:56.179Z,3.76
2023-02-04T15:34:23.853Z,4.52
2023-02-04T15:36:51.311Z,3.93
2023-02-04T15:39:18.786Z,2.84
2023-02-04T15:41:47.590Z,1.93
2023-02-04T15:44:15.048Z,1.73
2023-02-04T15:46:42.534Z,2.62
2023-02-04T15:49:10.045Z,1.98
2023-02-04T15:51:37.502Z,1.30
2023-02-04T15:54:05.148Z,1.17
2023-02-04T15:56:32.669Z,1.11
2023-02-04T15:59:02.545Z,1.02
2023-02-04T16:01:51.611Z,0.84
2023-02-04T16:04:20.840Z,0.78
2023-02-04T16:06:58.220Z,0.67
2023-02-04T16:09:26.237Z,0.50
2023-02-04T16:11:53.681Z,0.38
2023-02-04T16:14:22.480Z,0.30
2023-02-04T16:16:49.972Z,0.49
2023-02-04T16:19:17.434Z,0.34
2023-02-04T16:21:44.876Z,0.61
2023-02-04T16:24:12.805Z,0.01
2023-02-04T16:26:40.271Z,-0.13
2023-02-04T16:29:08.195Z,-0.25
2023-02-04T16:31:37.051Z,-0.29
2023-02-04T16:34:04.564Z,-0.18
2023-02-04T16:36:32.020Z,-0.27
2023-02-04T16:39:00.169Z,-0.43
2023-02-04T16:41:27.690Z,-0.64
2023-02-04T16:43:55.189Z,-0.75
2023-02-04T16:46:22.711Z,-0.76
2023-02-04T16:48:51.567Z,-0.82
2023-02-04T16:51:20.371Z,-0.84
2023-02-04T16:53:47.848Z,-0.99
2023-02-04T16:56:15.334Z,-1.07
2023-02-04T16:58:42.821Z,-1.07
2023-02-04T17:01:10.288Z,-1.08
2023-02-04T17:03:37.770Z,-1.11
2023-02-04T17:06:07.312Z,-1.11
2023-02-04T17:08:34.786Z,-1.15
2023-02-04T17:11:19.819Z,-1.11
2023-02-04T17:13:47.292Z,-1.20
2023-02-04T17:16:14.854Z,-1.22
2023-02-04T17:18:42.359Z,-1.25
2023-02-04T17:21:11.116Z,-1.19
2023-02-04T17:23:38.587Z,-0.90
2023-02-04T17:26:06.140Z,-0.91
2023-02-04T17:28:33.635Z,-1.10
2023-02-04T17:31:01.191Z,-1.17
2023-02-04T17:33:32.538Z,-1.24
2023-02-04T17:40:34.320Z,-1.24
2023-02-04T17:43:01.949Z,-1.23
2023-02-04T17:45:29.415Z,-1.18
2023-02-04T17:47:58.061Z,-1.22
2023-02-04T17:50:25.553Z,-1.25
2023-02-04T17:52:53.252Z,-1.20
2023-02-04T17:55:24.355Z,-1.32
2023-02-04T17:57:53.125Z,-1.36
2023-02-04T18:00:23.406Z,-1.35
2023-02-04T18:02:51.975Z,-1.33
2023-02-04T18:05:21.594Z,-1.38
2023-02-04T18:07:55.193Z,-1.34
2023-02-04T18:10:31.863Z,-1.09
2023-02-04T18:13:01.348Z,-0.96
2023-02-04T18:15:30.456Z,-0.25
2023-02-04T18:18:01.179Z,-0.61
2023-02-04T18:20:28.806Z,-0.88
2023-02-04T18:23:01.897Z,-0.48
2023-02-04T18:25:29.490Z,-0.66
2023-02-04T18:27:57.626Z,-0.44
2023-02-04T18:30:27.846Z,-0.60
2023-02-04T18:32:55.592Z,-0.76
2023-02-04T18:35:44.124Z,-1.10
2023-02-04T18:38:26.162Z,-1.38
2023-02-04T18:40:59.577Z,-1.21
2023-02-04T18:43:29.419Z,-1.41
2023-02-04T18:46:02.100Z,-0.99
2023-02-04T18:49:03.630Z,-0.90
2023-02-04T18:51:34.226Z,-0.86
2023-02-04T18:54:18.650Z,-1.10
2023-02-04T18:56:46.088Z,-1.24
2023-02-04T18:59:17.107Z,-0.74
2023-02-04T19:01:47.603Z,-1.31
2023-02-04T19:04:19.938Z,-1.45
2023-02-04T19:06:48.343Z,-1.49
2023-02-04T19:09:18.887Z,-0.50
2023-02-04T19:11:48.363Z,-0.84
2023-02-04T19:14:19.456Z,-1.34
2023-02-04T19:16:50.676Z,-1.45
2023-02-04T19:19:36.276Z,-1.58
2023-02-04T19:22:15.514Z,-1.39
2023-02-04T19:24:43.006Z,-1.54
2023-02-04T19:27:27.947Z,-1.45
2023-02-04T19:29:56.048Z,-1.54
2023-02-04T19:32:45.774Z,-1.19
2023-02-04T19:35:19.485Z,-1.31
2023-02-04T19:37:53.304Z,-1.00
2023-02-04T19:40:33.402Z,-1.45
2023-02-04T19:43:16.126Z,-0.86
2023-02-04T19:45:43.917Z,-0.98
2023-02-04T19:48:23.568Z,-1.20
2023-02-04T19:50:52.754Z,-0.68
2023-02-04T19:53:22.165Z,-0.52
2023-02-04T19:55:51.599Z,-1.01
2023-02-04T19:58:21.153Z,-0.32
2023-02-04T20:00:59.761Z,-0.51
2023-02-04T20:03:37.744Z,-0.07
2023-02-04T20:06:33.249Z,-0.14
2023-02-04T20:09:06.875Z,-0.41
2023-02-04T20:11:50.410Z,-0.03
2023-02-04T20:14:23.204Z,-1.28
2023-02-04T20:16:52.577Z,-1.53
2023-02-04T20:19:23.157Z,-1.62
2023-02-04T20:22:22.022Z,-1.74
2023-02-04T20:24:52.279Z,-1.67
2023-02-04T20:27:21.868Z,-1.33
2023-02-04T20:29:50.466Z,-1.41
2023-02-04T20:32:21.312Z,-1.23
2023-02-04T20:34:48.788Z,-0.99
2023-02-04T20:37:22.811Z,-1.77
2023-02-04T20:39:51.595Z,-1.93
2023-02-04T20:42:29.525Z,-1.97
2023-02-04T20:45:02.648Z,-1.97
2023-02-04T20:47:29.950Z,-2.05
2023-02-04T20:49:58.702Z,-1.90
2023-02-04T20:53:02.543Z,-1.64
2023-02-04T20:55:31.842Z,-1.66
2023-02-04T20:58:11.419Z,-1.54
2023-02-04T21:00:40.491Z,-1.05
2023-02-04T21:03:30.077Z,-0.69
2023-02-04T21:05:59.469Z,-0.65
2023-02-04T21:08:34.624Z,-0.46
2023-02-04T21:11:03.698Z,-0.09
2023-02-04T21:13:31.394Z,-0.66
2023-02-04T21:15:59.463Z,-0.51
2023-02-04T21:18:27.028Z,-0.20
2023-02-04T21:20:54.513Z,-0.08
2023-02-04T21:23:22.073Z,-0.10
2023-02-04T21:25:49.648Z,-0.44
2023-02-04T21:28:18.567Z,-0.59
2023-02-04T21:30:46.229Z,-1.17
2023-02-04T21:33:16.053Z,-1.29
2023-02-04T21:35:44.448Z,-0.87
2023-02-04T21:38:12.015Z,-0.93
2023-02-04T21:40:39.678Z,-0.96
2023-02-04T21:43:08.326Z,-0.60
2023-02-04T21:45:37.847Z,-0.33
2023-02-04T21:48:05.724Z,-0.10
2023-02-04T21:50:33.919Z,0.02
2023-02-04T21:53:01.623Z,-0.69
2023-02-04T21:55:29.789Z,-0.14
2023-02-04T21:57:57.253Z,-1.05
2023-02-04T22:00:24.972Z,-1.15
2023-02-04T22:02:54.667Z,-1.16
2023-02-04T22:05:22.786Z,-1.02
2023-02-04T22:07:50.346Z,-1.10
2023-02-04T22:10:22.460Z,-0.89
2023-02-04T22:12:50.019Z,-1.37
2023-02-04T22:15:17.797Z,-1.49
2023-02-04T22:17:45.553Z,-1.53
2023-02-04T22:20:15.942Z,-1.86
2023-02-04T22:22:44.001Z,-2.25
2023-02-04T22:25:11.714Z,-2.25
2023-02-04T22:27:39.210Z,-1.37
2023-02-04T22:30:07.820Z,-1.92
2023-02-04T22:32:35.381Z,-2.12
2023-02-04T22:35:03.267Z,-2.47
2023-02-04T22:37:32.070Z,-2.21
2023-02-04T22:39:59.546Z,-2.53
2023-02-04T22:42:27.033Z,-2.59
2023-02-04T22:44:54.493Z,-2.66
2023-02-04T22:47:21.990Z,-2.74
2023-02-04T22:49:49.444Z,-2.81
2023-02-04T22:52:16.939Z,-2.82
2023-02-04T22:54:45.703Z,-2.82
2023-02-04T22:57:13.181Z,-2.86
2023-02-04T22:59:40.761Z,-2.39
2023-02-04T23:02:08.258Z,-2.25
2023-02-04T23:04:35.763Z,-2.62
2023-02-04T23:07:04.669Z,-2.33
2023-02-04T23:09:32.716Z,-1.85
2023-02-04T23:12:12.602Z,-1.80
2023-02-04T23:14:41.637Z,-1.57
2023-02-04T23:17:09.331Z,-1.75
2023-02-04T23:19:36.884Z,-1.52
2023-02-04T23:22:04.613Z,-1.67
2023-02-04T23:24:32.245Z,-1.72
2023-02-04T23:27:01.111Z,-1.82
2023-02-04T23:29:29.206Z,-1.79
2023-02-04T23:31:56.856Z,-1.55
2023-02-04T23:34:24.364Z,-1.71
2023-02-04T23:36:52.108Z,-1.86
2023-02-04T23:39:20.487Z,-1.86
2023-02-04T23:41:47.940Z,-1.80
2023-02-04T23:44:17.029Z,-1.61
2023-02-04T23:46:44.852Z,-1.85
2023-02-04T23:49:12.398Z,-1.90
2023-02-04T23:51:39.990Z,-1.92
2023-02-04T23:54:07.985Z,-1.90
2023-02-04T23:56:35.729Z,-2.02
2023-02-04T23:59:03.240Z,-1.91
